Share

Key West, FL

Big Coppitt Key Gulfside (KFLKEYWE18) Elev 31 ft | 24.60 °N, 81.67 °W | Change Station

Current weather conditions updated 9 minutes ago

Clear
Clear
72.7 °F
Feels Like 75 °F
N
6.3
Wind Variable Wind from NNE
Sunrise 7:00 AM
Sunset 7:50 PM
Moon Waning Gibbous

Today is forecast to be Cooler than yesterday.

Pressure 30.02 in
Visibility 10.0 miles
Clouds Clear
Heat Index 75 °F
Dew Point 63 °F
Humidity 71%
Rainfall 0.00 in
Snow Depth Not available.
UV 0 out of 16
Pollen 6.20 out of 12
Air Quality Not available.
Flu Activity Sporadic
METAR KNQX 200553Z AUTO 30009KT 10SM CLR 22/16 A3002 RMK AO2 SLP165 T02220156 10239 20222 58003 $

More Conditions Fewer Conditions

Pressure 30.02 in
Visibility 10.0 miles
Clouds Clear
Heat Index 75 °F
Dew Point 63 °F
Humidity 71%
Rainfall 0.00 in
Snow Depth Not available.
UV 0 out of 16
Pollen 6.20 out of 12
Air Quality Not available.
Flu Activity Sporadic
METAR KNQX 200553Z AUTO 30009KT 10SM CLR 22/16 A3002 RMK AO2 SLP165 T02220156 10239 20222 58003 $

More Conditions Fewer Conditions

10-Day Weather Forecast

Almanac

Astronomy

Apr. 20, 2014 Rise Set
Actual Time 7:00 AM EDT 7:50 PM EDT
Civil Twilight 6:36 AM EDT 8:14 PM EDT
Nautical Twilight 6:09 AM EDT 8:42 PM EDT
Astronomical Twilight 5:40 AM EDT 9:10 PM EDT
Moon 12:16 AM EDT 11:31 AM EDT
Length of Visible Light 13h 37m
Length of Day
12h 50m
Tomorrow will be 1m 20s longer.
Waning Gibbous, 73% of the Moon is Illuminated
Today
Waning Gibbous
Apr 22
Last Quarter
Apr 29
New
May 6
First Quarter
May 14
Full

Today's Extremes

State Highs State Lows

Community

  • Sunny day at the coast-Cape Arago Lighthouse
    Sunny day at the coast-Cape Arago Lighthouse
  • Cherry Blossoms
    Cherry Blossoms
  • White-Crowned Sparrow
    White-Crowned Sparrow
  • New Day
    New Day
  • Happy Easter!
    Happy Easter!

WunderPhotos

Upload Photos

1,703,086 photos uploaded!

WunderBlogs® & News

Nearby

Snow Depth

Station Depth Elevation
No new snow has been reported.

Coastal Water Temperatures

Place Temperature
Key West, FL 81.0 °F
Vaca Key, FL 82.0 °F

Earthquake Activity

City Distance Mag. Time & Date
No recent earthquake activity has been reported nearby.
Minimum magnitude displayed is 2.5.

Nearby Weather Stations

Station Location Temp. Heat Index Dew Point Humidity Wind Precip. Elev Updated Type
Big Coppitt Key Gulfside, Key West, FL 72.7 °F 75 °F 63 °F 71% NNE  at  6.3 mph - / hr 31 ft 1:48 AM EDT Normal
Cudjoe Key, FL 71.7 °F 73 °F 63 °F 75% NW  at  7.0 mph 0.00 in / hr 16 ft 1:58 AM EDT Rapid Fire
Key West, FL 71.2 °F 73 °F 63 °F 74% NW  at  5.0 mph 0.00 in / hr 6 ft 1:51 AM EDT Normal
Breezeswept Estates - Bird Lake - Ramrod, Ramrod Key, FL 72.3 °F 74 °F 64 °F 74% NW  at  10.1 mph 0.00 in / hr 25 ft 1:58 AM EDT Rapid Fire

Show More Stations Show Fewer Stations

What do you think?

We're not finished. Please let us know what you like, what you don't like, and what you are still missing.